Time;durP1;ratioP1;P1;durP2;ratioP2;P2;SDS_P1;SDS_P2;PMS_P1;PMS_P2;Temp;Humidity;BMP_temperature;BMP_pressure;BME280_temperature;BME280_humidity;BME280_pressure;Samples;Min_cycle;Max_cycle;Signal;HPM_P1;HPM_P2
2023/07/11 00:00:04;;;;;;;23.03;13.00;;;18.90;99.90;;;;;;5045885;28;20207;-68
2023/07/11 00:02:52;;;;;;;22.10;14.00;;;18.80;99.90;;;;;;5040998;28;20221;-68
2023/07/11 00:05:40;;;;;;;28.53;13.73;;;18.80;99.90;;;;;;5047115;28;20206;-68
2023/07/11 00:08:28;;;;;;;21.03;13.40;;;18.70;99.90;;;;;;5037693;28;20212;-68
2023/07/11 00:11:16;;;;;;;27.87;14.60;;;18.70;99.90;;;;;;5045077;28;20210;-68
2023/07/11 00:14:04;;;;;;;24.37;14.73;;;18.60;99.90;;;;;;5042655;28;20248;-68
2023/07/11 00:16:52;;;;;;;23.57;13.87;;;18.60;99.90;;;;;;5044719;28;20286;-68
2023/07/11 00:19:49;;;;;;;24.43;14.50;;;18.60;99.90;;;;;;5046112;28;20221;-68
2023/07/11 00:22:38;;;;;;;23.63;14.20;;;18.50;99.90;;;;;;5046116;28;20207;-68
2023/07/11 00:25:25;;;;;;;23.67;14.43;;;18.50;99.90;;;;;;5043576;28;20215;-68
2023/07/11 00:28:12;;;;;;;22.33;14.40;;;18.50;99.90;;;;;;5044737;28;20218;-68
2023/07/11 00:31:00;;;;;;;23.70;13.90;;;18.50;99.90;;;;;;5047801;28;20225;-68
2023/07/11 00:33:47;;;;;;;21.20;15.07;;;18.50;99.90;;;;;;5046104;28;20208;-68
2023/07/11 00:36:35;;;;;;;25.53;14.33;;;18.50;99.90;;;;;;5046056;28;20601;-68
2023/07/11 00:39:24;;;;;;;20.53;14.00;;;18.60;99.90;;;;;;5044600;28;20231;-68
2023/07/11 00:42:11;;;;;;;26.00;12.97;;;18.60;99.90;;;;;;5037427;28;20237;-68
2023/07/11 00:45:01;;;;;;;19.57;13.60;;;18.60;99.90;;;;;;5042796;28;20215;-68
2023/07/11 00:47:48;;;;;;;20.37;13.23;;;18.60;99.90;;;;;;5049463;28;20568;-68
2023/07/11 00:50:35;;;;;;;22.17;13.67;;;18.60;99.90;;;;;;5046533;28;20227;-68
2023/07/11 00:53:23;;;;;;;21.97;12.17;;;18.60;99.90;;;;;;5045932;28;20193;-68
2023/07/11 00:56:13;;;;;;;22.87;13.27;;;18.60;99.90;;;;;;5046571;28;20206;-68
2023/07/11 00:59:00;;;;;;;20.83;12.73;;;18.60;99.90;;;;;;5036827;28;20214;-68
2023/07/11 01:01:50;;;;;;;19.00;12.80;;;18.60;99.90;;;;;;5041294;28;20230;-68
2023/07/11 01:04:38;;;;;;;18.77;12.77;;;18.60;99.90;;;;;;5040962;28;20777;-68
2023/07/11 01:07:26;;;;;;;18.60;11.93;;;18.60;99.90;;;;;;5045759;28;20205;-68
2023/07/11 01:10:13;;;;;;;18.77;13.13;;;18.60;99.90;;;;;;5043808;28;20211;-68
2023/07/11 01:13:03;;;;;;;23.07;13.20;;;18.60;99.90;;;;;;5044636;28;20216;-68
2023/07/11 01:15:50;;;;;;;22.77;14.40;;;18.50;99.90;;;;;;5040696;28;20210;-68
2023/07/11 01:18:38;;;;;;;20.80;13.07;;;18.40;99.90;;;;;;5042794;28;20208;-68
2023/07/11 01:21:26;;;;;;;21.17;14.47;;;18.30;99.90;;;;;;5041704;28;20199;-68
2023/07/11 01:24:14;;;;;;;21.93;13.90;;;18.30;99.90;;;;;;5044968;28;20225;-68
2023/07/11 01:27:01;;;;;;;27.87;13.30;;;18.30;99.90;;;;;;5039543;28;20215;-68
2023/07/11 01:29:49;;;;;;;20.07;13.73;;;18.30;99.90;;;;;;5042473;28;20215;-68
2023/07/11 01:32:36;;;;;;;22.50;13.60;;;18.30;99.90;;;;;;5043714;28;20765;-68
2023/07/11 01:35:23;;;;;;;20.43;13.20;;;18.30;99.90;;;;;;5034339;28;20496;-68
2023/07/11 01:38:12;;;;;;;19.27;13.50;;;18.30;99.90;;;;;;5043378;28;20386;-68
2023/07/11 01:40:59;;;;;;;18.50;13.17;;;18.30;99.90;;;;;;5043926;28;20212;-68
2023/07/11 01:43:46;;;;;;;22.83;14.23;;;18.20;99.90;;;;;;5045937;28;20720;-68
2023/07/11 01:46:33;;;;;;;25.03;13.63;;;18.20;99.90;;;;;;5047596;28;20320;-68
2023/07/11 01:49:20;;;;;;;22.03;13.30;;;18.30;99.90;;;;;;5038854;28;21081;-69
2023/07/11 01:52:12;;;;;;;20.80;12.63;;;18.30;99.90;;;;;;5044074;28;20204;-68
2023/07/11 01:55:01;;;;;;;18.27;12.03;;;18.30;99.90;;;;;;5036998;28;20200;-68
2023/07/11 01:57:48;;;;;;;19.43;12.07;;;18.20;99.90;;;;;;5041177;28;20295;-68
2023/07/11 02:00:35;;;;;;;18.97;12.07;;;18.20;99.90;;;;;;5041081;28;20692;-68
2023/07/11 02:03:22;;;;;;;18.40;11.50;;;18.20;99.90;;;;;;5040568;28;20219;-68
2023/07/11 02:06:09;;;;;;;16.10;11.23;;;18.10;99.90;;;;;;5043122;28;21305;-68
2023/07/11 02:08:57;;;;;;;16.83;11.07;;;18.10;99.90;;;;;;5041182;28;20236;-68
2023/07/11 02:11:45;;;;;;;15.97;10.63;;;18.00;99.90;;;;;;5043701;28;20212;-68
2023/07/11 02:14:36;;;;;;;13.83;10.70;;;18.00;99.90;;;;;;5038711;28;20204;-68
2023/07/11 02:17:23;;;;;;;18.00;10.60;;;18.00;99.90;;;;;;5042966;28;20244;-68
2023/07/11 02:20:12;;;;;;;16.37;10.27;;;18.00;99.90;;;;;;5040388;28;20646;-69
2023/07/11 02:23:01;;;;;;;16.57;10.70;;;17.90;99.90;;;;;;5036236;28;20219;-68
2023/07/11 02:25:51;;;;;;;17.10;9.90;;;17.90;99.90;;;;;;5043503;28;20222;-68
2023/07/11 02:28:40;;;;;;;16.47;11.60;;;17.80;99.90;;;;;;5042062;28;20255;-68
2023/07/11 02:31:27;;;;;;;15.37;10.70;;;17.80;99.90;;;;;;5042907;28;20205;-68
2023/07/11 02:34:14;;;;;;;15.67;10.83;;;17.70;99.90;;;;;;5041177;28;20277;-68
2023/07/11 02:37:01;;;;;;;15.97;11.40;;;17.70;99.90;;;;;;5044515;28;20209;-68
2023/07/11 02:39:48;;;;;;;15.63;11.23;;;17.60;99.90;;;;;;5044388;28;20232;-68
2023/07/11 02:42:35;;;;;;;17.27;11.33;;;17.60;99.90;;;;;;5040980;28;20221;-69
2023/07/11 02:45:24;;;;;;;20.17;11.70;;;17.60;99.90;;;;;;5043292;28;20254;-68
2023/07/11 02:48:15;;;;;;;20.77;11.83;;;17.60;99.90;;;;;;5044961;28;20214;-68
2023/07/11 02:51:02;;;;;;;19.17;11.57;;;17.50;99.90;;;;;;5039827;28;20221;-69
2023/07/11 02:53:49;;;;;;;23.23;12.43;;;17.50;99.90;;;;;;5039595;28;20578;-68
2023/07/11 02:56:40;;;;;;;15.30;11.87;;;17.40;99.90;;;;;;5039273;28;20215;-68
2023/07/11 02:59:31;;;;;;;21.90;11.53;;;17.40;99.90;;;;;;5046801;28;20676;-68
2023/07/11 03:02:20;;;;;;;18.23;12.00;;;17.40;99.90;;;;;;5045024;28;20713;-68
2023/07/11 03:05:07;;;;;;;22.40;12.20;;;17.50;99.90;;;;;;5047849;28;20308;-68
2023/07/11 03:07:55;;;;;;;19.57;13.20;;;17.40;99.90;;;;;;5045659;28;20345;-68
2023/07/11 03:10:42;;;;;;;20.80;13.93;;;17.40;99.90;;;;;;5049062;28;21001;-69
2023/07/11 03:13:29;;;;;;;18.27;12.57;;;17.40;99.90;;;;;;5036949;28;20233;-69
2023/07/11 03:16:16;;;;;;;18.97;11.87;;;17.40;99.90;;;;;;5044411;28;20209;-68
2023/07/11 03:19:05;;;;;;;17.30;11.60;;;17.50;99.90;;;;;;5046631;28;20743;-68
2023/07/11 03:21:52;;;;;;;18.13;10.80;;;17.50;99.90;;;;;;5044510;28;20616;-68
2023/07/11 03:24:39;;;;;;;15.40;10.80;;;17.40;99.90;;;;;;5047783;28;20243;-68
2023/07/11 03:27:26;;;;;;;17.97;9.30;;;17.40;99.90;;;;;;5045669;28;20236;-68
2023/07/11 03:30:14;;;;;;;16.03;9.70;;;17.40;99.90;;;;;;5038667;28;20209;-69
2023/07/11 03:33:01;;;;;;;15.83;10.00;;;17.40;99.90;;;;;;5048142;28;20206;-68
2023/07/11 03:35:50;;;;;;;18.03;10.50;;;17.40;99.90;;;;;;5046129;28;20197;-68
2023/07/11 03:38:39;;;;;;;17.70;10.17;;;17.40;99.90;;;;;;5047987;28;20229;-68
2023/07/11 03:41:26;;;;;;;17.50;10.40;;;17.30;99.90;;;;;;5047205;28;20201;-68
2023/07/11 03:44:13;;;;;;;19.70;10.00;;;17.40;99.90;;;;;;5045830;28;20680;-68
2023/07/11 03:47:00;;;;;;;17.07;10.50;;;17.40;99.90;;;;;;5036700;28;20248;-68
2023/07/11 03:49:48;;;;;;;14.63;9.63;;;17.50;99.90;;;;;;5044302;28;20595;-68
2023/07/11 03:52:36;;;;;;;13.70;9.40;;;17.50;99.90;;;;;;5046602;28;20206;-68
2023/07/11 03:55:23;;;;;;;15.80;10.47;;;17.60;99.90;;;;;;5041657;28;20233;-68
2023/07/11 03:58:11;;;;;;;17.03;9.80;;;17.50;99.90;;;;;;5045476;28;20737;-68
2023/07/11 04:00:58;;;;;;;14.93;10.17;;;17.50;99.90;;;;;;5044712;28;20200;-68
2023/07/11 04:03:45;;;;;;;14.53;10.17;;;17.50;99.90;;;;;;5041515;28;20217;-68
2023/07/11 04:06:32;;;;;;;16.77;10.23;;;17.40;99.90;;;;;;5045517;28;20222;-68
2023/07/11 04:09:21;;;;;;;12.60;9.33;;;17.50;99.90;;;;;;5045610;28;20270;-68
2023/07/11 04:12:09;;;;;;;19.27;9.83;;;17.60;99.90;;;;;;5043272;28;20302;-68
2023/07/11 04:14:56;;;;;;;15.10;9.20;;;17.60;99.90;;;;;;5044296;28;20240;-68
2023/07/11 04:17:43;;;;;;;16.50;9.57;;;17.70;99.90;;;;;;5043743;28;20570;-68
2023/07/11 04:20:30;;;;;;;17.70;9.47;;;17.80;99.90;;;;;;5045185;28;20199;-68
2023/07/11 04:23:18;;;;;;;13.27;9.77;;;17.80;99.90;;;;;;5043234;28;20197;-69
2023/07/11 04:26:06;;;;;;;13.13;9.40;;;17.90;99.90;;;;;;5045756;28;20254;-69
2023/07/11 04:28:53;;;;;;;16.37;9.73;;;17.90;99.90;;;;;;5045490;28;20604;-68
2023/07/11 04:31:40;;;;;;;13.80;9.23;;;17.90;99.90;;;;;;5040702;28;20311;-68
2023/07/11 04:34:28;;;;;;;14.13;9.30;;;17.90;99.90;;;;;;5046217;28;20199;-68
2023/07/11 04:37:15;;;;;;;16.03;10.40;;;17.80;99.90;;;;;;5044634;28;20216;-68
2023/07/11 04:40:03;;;;;;;12.50;9.40;;;17.90;99.90;;;;;;5042086;28;20228;-68
2023/07/11 04:42:52;;;;;;;13.47;9.10;;;17.80;99.90;;;;;;5044998;28;20213;-68
2023/07/11 04:45:39;;;;;;;16.10;8.83;;;17.70;99.90;;;;;;5045461;28;20222;-68
2023/07/11 04:48:26;;;;;;;13.43;8.83;;;17.70;99.90;;;;;;5046088;28;20205;-67
2023/07/11 04:51:14;;;;;;;14.07;8.57;;;17.70;99.90;;;;;;5043542;28;20200;-67
2023/07/11 04:54:01;;;;;;;13.40;9.10;;;17.70;99.90;;;;;;5044755;28;20217;-68
2023/07/11 04:56:55;;;;;;;11.80;8.77;;;17.80;99.90;;;;;;5037074;28;20205;-68
2023/07/11 04:59:44;;;;;;;15.50;8.60;;;17.80;99.90;;;;;;5042499;28;20205;-68
2023/07/11 05:02:31;;;;;;;13.43;8.60;;;17.90;99.90;;;;;;5043866;28;20219;-68
2023/07/11 05:05:18;;;;;;;12.70;8.87;;;18.00;99.90;;;;;;5046559;28;20222;-68
2023/07/11 05:08:05;;;;;;;11.83;8.37;;;17.90;99.90;;;;;;5045130;28;20198;-68
2023/07/11 05:10:53;;;;;;;13.07;8.47;;;18.00;99.90;;;;;;5045699;28;20229;-69
2023/07/11 05:13:40;;;;;;;10.87;7.97;;;18.20;99.90;;;;;;5036440;28;20207;-68
2023/07/11 05:16:31;;;;;;;14.67;8.43;;;18.30;99.90;;;;;;5045954;28;20204;-68
2023/07/11 05:19:19;;;;;;;13.87;7.83;;;18.20;99.90;;;;;;5039988;28;21027;-68
2023/07/11 05:22:06;;;;;;;12.47;7.70;;;18.40;99.90;;;;;;5045440;28;20235;-70
2023/07/11 05:24:54;;;;;;;11.70;7.60;;;18.30;99.90;;;;;;5041665;28;20218;-69
2023/07/11 05:27:41;;;;;;;13.20;7.50;;;18.50;99.90;;;;;;5042939;28;20208;-70
2023/07/11 05:30:28;;;;;;;11.90;7.50;;;18.50;99.90;;;;;;5039110;28;20203;-68
2023/07/11 05:33:17;;;;;;;15.30;8.03;;;18.30;99.90;;;;;;5042544;28;20198;-68
2023/07/11 05:36:13;;;;;;;14.50;6.80;;;18.20;99.90;;;;;;5045696;28;20203;-70
2023/07/11 05:39:02;;;;;;;10.27;6.93;;;18.40;99.90;;;;;;5044124;28;20329;-69
2023/07/11 05:41:52;;;;;;;12.30;7.10;;;18.60;99.90;;;;;;5043914;28;20240;-68
2023/07/11 05:44:39;;;;;;;9.83;6.13;;;18.60;99.90;;;;;;5042614;28;20204;-71
2023/07/11 05:47:26;;;;;;;12.00;7.23;;;18.60;99.90;;;;;;5028669;28;20225;-68
2023/07/11 05:50:15;;;;;;;13.30;7.30;;;18.60;99.90;;;;;;5043061;28;20268;-67
2023/07/11 05:53:02;;;;;;;10.53;7.13;;;18.70;99.90;;;;;;5043965;28;20705;-67
2023/07/11 05:55:49;;;;;;;10.33;7.10;;;18.90;99.90;;;;;;5043657;28;20199;-68
2023/07/11 05:58:37;;;;;;;10.00;7.57;;;19.20;99.90;;;;;;5037105;28;20206;-68
2023/07/11 06:01:25;;;;;;;12.80;7.20;;;19.20;99.90;;;;;;5041745;28;20660;-67
2023/07/11 06:04:13;;;;;;;13.07;7.13;;;19.40;99.90;;;;;;5039744;28;20691;-68
2023/07/11 06:07:03;;;;;;;13.13;7.23;;;19.40;99.90;;;;;;5040061;28;20244;-69
2023/07/11 06:09:50;;;;;;;11.23;7.00;;;19.50;99.90;;;;;;5038457;28;20216;-69
2023/07/11 06:12:37;;;;;;;14.43;7.20;;;19.70;99.90;;;;;;5039279;28;20231;-68
2023/07/11 06:15:24;;;;;;;11.30;7.10;;;19.90;99.90;;;;;;5043372;28;20208;-68
2023/07/11 06:18:12;;;;;;;12.57;6.87;;;19.70;99.90;;;;;;5040344;28;20204;-71
2023/07/11 06:20:59;;;;;;;10.87;6.40;;;19.90;99.90;;;;;;5043286;28;20233;-68
2023/07/11 06:23:48;;;;;;;11.77;7.33;;;19.60;99.90;;;;;;5035077;28;20690;-67
2023/07/11 06:26:35;;;;;;;10.57;7.50;;;19.30;99.90;;;;;;5037907;28;20228;-68
2023/07/11 06:29:22;;;;;;;12.77;7.40;;;19.50;99.90;;;;;;5043100;28;20205;-68
2023/07/11 06:32:09;;;;;;;9.73;7.20;;;19.90;99.90;;;;;;5045804;28;21151;-67
2023/07/11 06:34:57;;;;;;;10.70;6.97;;;20.20;99.90;;;;;;5042567;28;20205;-69
2023/07/11 06:37:44;;;;;;;11.70;7.27;;;20.40;99.90;;;;;;5047357;28;20732;-67
2023/07/11 06:40:33;;;;;;;14.23;7.93;;;20.40;99.90;;;;;;5036393;28;20285;-70
2023/07/11 06:43:20;;;;;;;12.87;6.80;;;20.40;99.90;;;;;;5046781;28;20233;-71
2023/07/11 06:46:07;;;;;;;10.37;6.80;;;20.30;99.90;;;;;;5047717;28;20293;-68
2023/07/11 06:48:55;;;;;;;13.70;7.10;;;20.10;99.90;;;;;;5044402;28;20248;-70
2023/07/11 06:51:42;;;;;;;10.33;6.53;;;20.20;99.90;;;;;;5045093;28;20319;-70
2023/07/11 06:54:29;;;;;;;13.93;7.23;;;20.50;99.90;;;;;;5047008;28;20209;-68
2023/07/11 06:57:18;;;;;;;12.93;6.97;;;20.50;99.90;;;;;;5041516;28;20256;-68
2023/07/11 07:00:08;;;;;;;12.97;6.97;;;20.50;99.90;;;;;;5044305;28;20201;-68
2023/07/11 07:02:55;;;;;;;11.83;6.60;;;20.50;99.90;;;;;;5044042;28;20812;-67
2023/07/11 07:05:48;;;;;;;9.60;6.67;;;20.30;99.90;;;;;;5045926;28;20319;-68
2023/07/11 07:08:36;;;;;;;9.97;5.77;;;20.20;99.90;;;;;;5044144;28;20311;-68
2023/07/11 07:11:23;;;;;;;12.30;6.87;;;20.50;99.90;;;;;;5047621;28;20237;-67
2023/07/11 07:14:11;;;;;;;11.00;6.63;;;20.60;99.90;;;;;;5038005;28;20229;-68
2023/07/11 07:16:59;;;;;;;10.53;7.03;;;20.60;99.90;;;;;;5048006;28;20205;-67
2023/07/11 07:19:46;;;;;;;14.30;6.63;;;20.90;99.90;;;;;;5035884;28;20213;-67
2023/07/11 07:22:33;;;;;;;10.77;6.57;;;21.00;99.90;;;;;;5048225;28;20206;-68
2023/07/11 07:25:20;;;;;;;9.93;5.93;;;21.30;99.90;;;;;;5048633;28;20315;-67
2023/07/11 07:28:08;;;;;;;12.40;6.60;;;21.50;99.90;;;;;;5049517;28;20286;-67
2023/07/11 07:30:57;;;;;;;9.27;6.30;;;21.60;99.90;;;;;;5040741;28;20208;-67
2023/07/11 07:33:44;;;;;;;9.17;6.00;;;21.90;99.90;;;;;;5048425;28;20204;-67
2023/07/11 07:36:31;;;;;;;9.53;6.10;;;21.60;99.90;;;;;;5048529;28;20197;-67
2023/07/11 07:39:18;;;;;;;8.13;5.80;;;21.50;99.90;;;;;;5038739;28;20220;-68
2023/07/11 07:42:06;;;;;;;11.93;6.67;;;21.60;99.90;;;;;;5047746;28;20197;-67
2023/07/11 07:44:54;;;;;;;13.00;6.30;;;21.60;99.90;;;;;;5048513;28;20610;-70
2023/07/11 07:47:43;;;;;;;16.67;6.17;;;21.80;99.90;;;;;;5038188;28;20220;-68
2023/07/11 07:50:30;;;;;;;9.97;6.40;;;21.80;99.90;;;;;;5044361;28;20233;-71
2023/07/11 07:53:17;;;;;;;15.20;7.30;;;22.00;99.90;;;;;;5044977;28;20299;-67
2023/07/11 07:56:05;;;;;;;11.63;6.60;;;21.50;99.90;;;;;;5045910;28;20201;-68
2023/07/11 07:58:52;;;;;;;10.30;6.30;;;21.80;99.90;;;;;;5043096;28;20568;-68
2023/07/11 08:01:40;;;;;;;11.70;6.03;;;22.20;99.90;;;;;;5038794;28;20205;-68
2023/07/11 08:04:30;;;;;;;11.23;7.13;;;22.50;99.90;;;;;;5044184;28;20201;-68
2023/07/11 08:07:17;;;;;;;9.20;6.20;;;22.00;99.90;;;;;;5042521;28;20213;-68
2023/07/11 08:10:05;;;;;;;9.37;6.93;;;22.20;99.90;;;;;;5043140;28;20197;-68
2023/07/11 08:12:52;;;;;;;8.73;6.70;;;22.70;99.90;;;;;;5041545;28;20202;-68
2023/07/11 08:15:41;;;;;;;10.20;6.60;;;22.80;99.90;;;;;;5047068;28;20702;-67
2023/07/11 08:18:29;;;;;;;12.27;5.90;;;22.40;99.90;;;;;;5037305;28;20206;-67
2023/07/11 08:21:17;;;;;;;15.03;6.43;;;22.10;99.90;;;;;;5039764;28;20240;-67
2023/07/11 08:24:05;;;;;;;10.40;5.80;;;21.90;99.90;;;;;;5046310;28;20287;-69
2023/07/11 08:26:53;;;;;;;8.20;6.37;;;22.10;99.90;;;;;;5037873;28;20221;-68
2023/07/11 08:29:44;;;;;;;11.10;6.40;;;22.60;99.90;;;;;;5031224;28;20201;-68
2023/07/11 08:32:32;;;;;;;8.50;6.40;;;23.00;99.90;;;;;;5037979;28;20232;-69
2023/07/11 08:35:19;;;;;;;10.80;5.67;;;23.40;99.90;;;;;;5046091;28;20326;-70
2023/07/11 08:38:11;;;;;;;11.33;6.17;;;23.10;99.90;;;;;;5045503;28;20232;-69
2023/07/11 08:40:58;;;;;;;12.67;6.50;;;22.80;99.90;;;;;;5043025;28;20228;-69
2023/07/11 08:43:45;;;;;;;9.93;6.00;;;22.80;99.90;;;;;;5043598;28;20209;-69
2023/07/11 08:46:33;;;;;;;8.07;5.93;;;23.20;99.90;;;;;;5045068;28;20691;-67
2023/07/11 08:49:23;;;;;;;7.33;5.17;;;23.20;99.90;;;;;;5037490;28;21912;-68
2023/07/11 08:52:10;;;;;;;9.80;5.53;;;23.20;99.90;;;;;;5044195;28;20213;-68
2023/07/11 08:55:01;;;;;;;13.90;6.23;;;23.10;99.90;;;;;;5043615;28;20207;-68
2023/07/11 08:57:49;;;;;;;8.83;6.00;;;23.60;99.90;;;;;;5045780;28;20616;-67
2023/07/11 09:00:36;;;;;;;10.57;5.83;;;23.60;99.90;;;;;;5042634;28;20733;-68
2023/07/11 09:03:27;;;;;;;13.13;6.07;;;23.10;99.90;;;;;;5045751;28;20213;-67
2023/07/11 09:06:16;;;;;;;8.33;5.47;;;23.40;99.90;;;;;;5045296;28;20209;-67
2023/07/11 09:09:04;;;;;;;7.87;5.33;;;23.60;99.90;;;;;;5037638;28;20201;-67
2023/07/11 09:12:06;;;;;;;9.77;5.57;;;23.80;99.90;;;;;;5041731;28;20211;-67
2023/07/11 09:14:56;;;;;;;11.50;5.43;;;23.80;99.90;;;;;;5043122;28;20244;-67
2023/07/11 09:17:59;;;;;;;9.47;5.80;;;23.60;99.90;;;;;;5041632;28;20233;-68
2023/07/11 09:20:48;;;;;;;8.93;5.47;;;23.80;99.90;;;;;;5039685;28;20211;-67
2023/07/11 09:23:39;;;;;;;9.03;5.67;;;23.40;99.90;;;;;;5045522;28;20717;-67
2023/07/11 09:26:27;;;;;;;6.37;4.77;;;23.50;99.90;;;;;;5037084;28;20244;-67
2023/07/11 09:29:16;;;;;;;7.60;5.00;;;23.60;99.90;;;;;;5041889;28;20200;-67
2023/07/11 09:32:04;;;;;;;9.98;5.15;;;23.70;99.90;;;;;;5041630;28;20690;-67
2023/07/11 09:34:52;;;;;;;10.65;5.53;;;24.00;99.90;;;;;;5041657;28;20201;-67
2023/07/11 09:37:42;;;;;;;7.87;5.70;;;23.60;99.90;;;;;;5039439;28;20209;-71
2023/07/11 09:40:38;;;;;;;8.70;6.50;;;23.30;99.90;;;;;;5040030;28;20247;-68
2023/07/11 09:43:25;;;;;;;7.80;5.50;;;23.80;99.90;;;;;;5041274;28;20201;-67
2023/07/11 09:46:15;;;;;;;10.37;5.97;;;23.40;99.90;;;;;;5044595;28;20192;-67
2023/07/11 09:49:02;;;;;;;9.57;5.23;;;23.20;99.90;;;;;;5036120;28;20603;-67
2023/07/11 09:51:51;;;;;;;8.75;5.68;;;23.90;99.90;;;;;;5043102;28;20205;-68
2023/07/11 09:54:45;;;;;;;10.10;5.40;;;24.50;99.90;;;;;;5040132;28;20205;-68
2023/07/11 09:57:32;;;;;;;10.15;5.18;;;24.20;99.90;;;;;;5045201;28;20228;-68
2023/07/11 10:00:19;;;;;;;11.30;5.20;;;24.30;99.90;;;;;;5042489;28;20197;-67
2023/07/11 10:03:14;;;;;;;10.40;5.50;;;24.00;99.90;;;;;;5043069;28;20564;-67
2023/07/11 10:06:02;;;;;;;7.75;5.20;;;24.30;99.90;;;;;;5046191;28;20205;-69
2023/07/11 10:08:51;;;;;;;5.95;4.50;;;24.80;99.90;;;;;;5042602;28;20201;-67
2023/07/11 10:11:38;;;;;;;8.73;4.75;;;24.90;99.90;;;;;;5046404;28;20579;-67
2023/07/11 10:14:28;;;;;;;10.95;4.65;;;24.00;99.90;;;;;;5046834;28;21389;-67
2023/07/11 10:17:18;;;;;;;8.10;4.13;;;25.00;99.90;;;;;;5046302;28;20205;-68
2023/07/11 10:20:13;;;;;;;5.07;4.10;;;25.50;96.80;;;;;;5047251;28;20209;-67
2023/07/11 10:23:05;;;;;;;7.53;4.03;;;25.60;94.50;;;;;;5045064;28;20205;-67
2023/07/11 10:25:53;;;;;;;6.38;3.80;;;25.20;95.30;;;;;;5035738;28;20284;-67
2023/07/11 10:28:43;;;;;;;4.80;4.00;;;24.80;97.20;;;;;;5043006;28;20217;-67
2023/07/11 10:31:33;;;;;;;7.53;4.30;;;25.00;98.40;;;;;;5045808;28;20571;-67
2023/07/11 10:34:22;;;;;;;8.38;4.32;;;25.60;94.60;;;;;;5047620;28;20711;-67
2023/07/11 10:37:24;;;;;;;7.65;4.15;;;25.70;94.80;;;;;;5046006;28;20193;-67
2023/07/11 10:40:15;;;;;;;9.73;3.92;;;26.10;92.50;;;;;;5044297;28;20323;-66
2023/07/11 10:43:04;;;;;;;5.38;4.47;;;26.50;91.20;;;;;;5036121;28;20668;-66
2023/07/11 10:45:51;;;;;;;5.78;4.40;;;26.30;90.50;;;;;;5041777;28;20311;-67
2023/07/11 10:48:41;;;;;;;6.25;3.90;;;26.40;81.20;;;;;;5045258;28;20233;-67
2023/07/11 10:51:31;;;;;;;5.43;3.80;;;25.70;87.50;;;;;;5045858;28;20197;-66
2023/07/11 10:54:22;;;;;;;7.07;4.32;;;25.10;83.90;;;;;;5041088;28;20661;-66
2023/07/11 10:57:13;;;;;;;9.27;4.00;;;24.80;89.40;;;;;;5045675;28;20220;-67
2023/07/11 11:00:00;;;;;;;8.40;3.78;;;26.00;94.00;;;;;;5038822;28;20255;-67
2023/07/11 11:02:53;;;;;;;8.55;3.90;;;26.60;77.80;;;;;;5044222;28;20216;-66
2023/07/11 11:05:45;;;;;;;7.55;3.47;;;26.70;75.20;;;;;;5042651;28;20208;-67
2023/07/11 11:08:34;;;;;;;9.20;3.75;;;27.20;77.00;;;;;;5031883;28;20225;-66
2023/07/11 11:11:26;;;;;;;4.85;3.63;;;27.70;75.80;;;;;;5042842;28;20319;-67
2023/07/11 11:14:15;;;;;;;4.25;3.65;;;26.80;70.50;;;;;;5035199;28;20707;-67
2023/07/11 11:17:10;;;;;;;6.78;3.50;;;26.70;70.50;;;;;;5045713;28;20198;-66
2023/07/11 11:20:11;;;;;;;9.30;3.75;;;26.60;70.20;;;;;;5041748;28;20394;-66
2023/07/11 11:23:05;;;;;;;5.57;3.78;;;26.40;67.90;;;;;;5044019;28;20691;-66
2023/07/11 11:25:58;;;;;;;7.95;3.45;;;26.80;72.50;;;;;;5038113;28;20314;-66
2023/07/11 11:28:52;;;;;;;5.47;3.28;;;25.60;69.30;;;;;;5035493;28;20236;-67
2023/07/11 11:31:42;;;;;;;9.18;3.72;;;25.80;69.80;;;;;;5043741;28;20201;-69
2023/07/11 11:34:39;;;;;;;7.75;3.63;;;26.20;64.50;;;;;;5047399;28;20208;-67
2023/07/11 11:37:30;;;;;;;5.53;3.40;;;26.60;69.50;;;;;;5042501;28;20258;-67
2023/07/11 11:40:19;;;;;;;6.30;3.42;;;26.80;59.50;;;;;;5035279;28;20209;-67
2023/07/11 11:43:10;;;;;;;5.28;2.95;;;27.10;60.60;;;;;;5033273;28;20197;-67
2023/07/11 11:46:00;;;;;;;5.68;3.53;;;26.50;58.40;;;;;;5043071;28;20209;-67
2023/07/11 11:48:48;;;;;;;8.52;3.65;;;26.30;60.50;;;;;;5046566;28;20233;-67
2023/07/11 11:51:35;;;;;;;6.50;3.70;;;26.40;61.90;;;;;;5044267;28;21114;-67
2023/07/11 11:54:24;;;;;;;4.50;3.50;;;26.30;66.00;;;;;;5044654;28;20545;-67
2023/07/11 11:57:15;;;;;;;7.07;3.55;;;26.50;67.00;;;;;;5041620;28;20193;-67
2023/07/11 12:00:02;;;;;;;6.55;3.55;;;26.70;60.80;;;;;;5036241;28;20224;-67
2023/07/11 12:02:51;;;;;;;5.25;3.72;;;27.50;65.70;;;;;;5038836;28;20229;-67
2023/07/11 12:05:43;;;;;;;4.70;3.40;;;28.00;58.70;;;;;;5044658;28;20208;-67
2023/07/11 12:08:33;;;;;;;4.43;3.10;;;27.50;57.50;;;;;;5038073;28;20731;-67
2023/07/11 12:11:31;;;;;;;5.18;3.25;;;27.70;57.30;;;;;;5043206;28;20220;-67
2023/07/11 12:14:25;;;;;;;6.03;3.50;;;27.40;57.10;;;;;;5043790;28;20208;-67
2023/07/11 12:17:44;;;;;;;7.30;3.47;;;26.50;58.90;;;;;;5042632;28;20213;-67
2023/07/11 12:20:33;;;;;;;4.55;3.20;;;26.60;58.20;;;;;;5023753;28;20621;-67
2023/07/11 12:23:20;;;;;;;4.85;3.10;;;27.30;62.30;;;;;;5044661;28;20593;-67
2023/07/11 12:26:11;;;;;;;8.25;3.25;;;27.50;56.10;;;;;;5044567;28;20679;-67
2023/07/11 12:29:20;;;;;;;5.43;3.50;;;27.00;59.20;;;;;;5043571;28;20225;-67
2023/07/11 12:32:34;;;;;;;5.78;3.20;;;27.20;56.10;;;;;;5042742;28;20216;-67
2023/07/11 12:35:22;;;;;;;4.75;3.17;;;27.20;54.30;;;;;;5042217;28;20208;-66
2023/07/11 12:38:12;;;;;;;5.47;3.13;;;27.20;53.90;;;;;;5042576;28;20221;-66
2023/07/11 12:41:07;;;;;;;6.30;2.90;;;27.40;52.20;;;;;;5040562;28;20697;-67
2023/07/11 12:43:54;;;;;;;5.68;2.97;;;26.90;53.80;;;;;;5045337;28;20527;-66
2023/07/11 12:46:42;;;;;;;6.60;3.25;;;26.60;55.20;;;;;;5045461;28;20228;-66
2023/07/11 12:49:31;;;;;;;3.97;3.15;;;26.60;56.00;;;;;;5047992;28;20229;-67
2023/07/11 12:52:21;;;;;;;5.47;3.47;;;26.20;54.60;;;;;;5037469;28;20206;-67
2023/07/11 12:55:11;;;;;;;6.28;3.63;;;26.70;57.00;;;;;;5040378;28;20205;-67
2023/07/11 12:57:58;;;;;;;8.00;3.28;;;27.20;52.10;;;;;;5042594;28;20206;-67
2023/07/11 13:00:46;;;;;;;5.60;3.35;;;27.50;54.30;;;;;;5043721;28;20216;-67
2023/07/11 13:03:36;;;;;;;6.38;3.17;;;27.30;54.60;;;;;;5041861;28;20310;-67
2023/07/11 13:06:29;;;;;;;4.63;3.22;;;27.30;58.40;;;;;;5043824;28;20227;-67
2023/07/11 13:09:16;;;;;;;4.78;3.33;;;27.20;56.70;;;;;;5036538;28;20316;-67
2023/07/11 13:12:04;;;;;;;5.40;3.50;;;26.90;52.90;;;;;;5040189;28;20189;-67
2023/07/11 13:14:52;;;;;;;7.03;3.75;;;26.80;56.40;;;;;;5042337;28;20208;-67
2023/07/11 13:17:39;;;;;;;9.32;3.35;;;26.20;54.20;;;;;;5047481;28;20208;-67
2023/07/11 13:20:28;;;;;;;6.07;3.65;;;26.60;57.50;;;;;;5042885;28;21794;-66
2023/07/11 13:23:17;;;;;;;6.55;3.42;;;27.00;56.00;;;;;;5042078;28;20198;-67
2023/07/11 13:26:09;;;;;;;7.03;3.42;;;27.80;53.10;;;;;;5036932;28;20205;-66
2023/07/11 13:29:03;;;;;;;6.07;3.60;;;28.80;55.10;;;;;;5044826;28;20221;-66
2023/07/11 13:32:01;;;;;;;4.53;3.15;;;29.60;51.50;;;;;;5045401;28;20239;-66
2023/07/11 13:34:50;;;;;;;5.70;3.22;;;29.40;49.00;;;;;;5046887;28;20201;-67
2023/07/11 13:37:40;;;;;;;3.90;2.90;;;29.20;48.90;;;;;;5044211;28;20260;-66
2023/07/11 13:40:46;;;;;;;4.03;2.88;;;28.80;48.00;;;;;;5043452;28;20255;-67
2023/07/11 13:43:34;;;;;;;8.80;3.47;;;28.70;48.60;;;;;;5045171;28;20204;-68
2023/07/11 13:46:23;;;;;;;3.30;2.75;;;28.80;48.70;;;;;;5043435;28;20770;-68
2023/07/11 13:49:18;;;;;;;6.72;3.30;;;28.70;48.00;;;;;;5042269;28;20256;-68
2023/07/11 13:52:06;;;;;;;3.92;3.17;;;28.80;48.60;;;;;;5043799;28;20205;-68
2023/07/11 13:54:55;;;;;;;5.50;2.90;;;27.80;48.00;;;;;;5042430;28;20209;-68
2023/07/11 13:57:44;;;;;;;5.60;3.40;;;27.40;49.80;;;;;;5046042;28;20197;-68
2023/07/11 14:00:31;;;;;;;6.93;3.35;;;27.00;50.10;;;;;;5036484;28;20205;-68
2023/07/11 14:03:19;;;;;;;6.65;3.20;;;27.50;58.80;;;;;;5039661;28;20216;-68
2023/07/11 14:06:06;;;;;;;7.95;3.22;;;27.90;51.50;;;;;;5045260;28;20212;-67
2023/07/11 14:08:53;;;;;;;4.78;2.90;;;28.60;50.20;;;;;;5035218;28;20228;-67
2023/07/11 14:11:42;;;;;;;6.53;3.05;;;29.40;50.30;;;;;;5043657;28;20304;-67
2023/07/11 14:14:30;;;;;;;6.13;2.95;;;29.80;48.00;;;;;;5044721;28;20205;-66
2023/07/11 14:17:20;;;;;;;3.58;2.80;;;29.50;47.00;;;;;;5044197;28;20216;-66
2023/07/11 14:20:13;;;;;;;5.63;3.25;;;29.40;44.80;;;;;;5047117;28;20197;-67
2023/07/11 14:23:01;;;;;;;4.95;2.83;;;29.10;47.10;;;;;;5042969;28;20236;-66
2023/07/11 14:25:48;;;;;;;3.63;2.70;;;29.00;45.50;;;;;;5042189;28;20205;-67
2023/07/11 14:28:35;;;;;;;6.72;2.97;;;29.00;44.40;;;;;;5041078;28;20585;-66